createdAt,value
2023-04-29T00:01:37.111Z,79.00
2023-04-29T00:04:09.635Z,78.66
2023-04-29T00:06:42.262Z,78.49
2023-04-29T00:09:14.638Z,79.61
2023-04-29T00:11:47.237Z,79.59
2023-04-29T00:14:20.379Z,79.54
2023-04-29T00:16:52.813Z,80.70
2023-04-29T00:19:25.278Z,80.79
2023-04-29T00:21:57.642Z,80.60
2023-04-29T00:24:29.963Z,81.84
2023-04-29T00:27:02.470Z,80.80
2023-04-29T00:29:36.170Z,80.85
2023-04-29T00:32:08.627Z,81.82
2023-04-29T00:34:40.910Z,81.99
2023-04-29T00:37:13.278Z,82.50
2023-04-29T00:39:45.586Z,81.98
2023-04-29T00:42:19.018Z,82.32
2023-04-29T00:44:51.982Z,81.79
2023-04-29T00:47:24.380Z,82.31
2023-04-29T00:49:56.680Z,83.19
2023-04-29T00:52:30.865Z,83.10
2023-04-29T00:55:05.854Z,84.00
2023-04-29T00:57:39.085Z,83.67
2023-04-29T01:00:13.762Z,84.91
2023-04-29T01:02:56.304Z,84.63
2023-04-29T01:05:28.895Z,84.74
2023-04-29T01:08:18.379Z,85.14
2023-04-29T01:10:56.856Z,85.50
2023-04-29T01:13:31.066Z,86.04
2023-04-29T01:16:11.362Z,85.60
2023-04-29T01:18:49.563Z,86.32
2023-04-29T01:21:25.190Z,85.98
2023-04-29T01:23:58.213Z,85.03
2023-04-29T01:26:34.835Z,84.93
2023-04-29T01:29:28.334Z,85.21
2023-04-29T01:32:08.310Z,85.34
2023-04-29T01:34:47.413Z,85.23
2023-04-29T01:37:28.269Z,84.94
2023-04-29T01:40:10.020Z,85.28
2023-04-29T01:42:55.776Z,85.27
2023-04-29T01:45:29.439Z,85.46
2023-04-29T01:48:04.072Z,85.69
2023-04-29T01:50:36.967Z,86.52
2023-04-29T01:53:16.800Z,86.29
2023-04-29T01:55:51.037Z,84.69
2023-04-29T01:58:30.751Z,85.84
2023-04-29T02:01:13.588Z,86.38
2023-04-29T02:03:46.337Z,86.51
2023-04-29T02:06:20.871Z,87.19
2023-04-29T02:08:58.436Z,87.00
2023-04-29T02:11:31.511Z,86.84
2023-04-29T02:14:03.955Z,87.04
2023-04-29T02:16:36.364Z,88.31
2023-04-29T02:19:12.131Z,88.21
2023-04-29T02:21:45.135Z,89.20
2023-04-29T02:24:17.579Z,89.03
2023-04-29T02:26:54.070Z,89.30
2023-04-29T02:29:29.092Z,89.87
2023-04-29T02:32:01.519Z,90.32
2023-04-29T02:34:34.014Z,90.35
2023-04-29T02:37:06.768Z,90.65
2023-04-29T02:39:39.071Z,90.33
2023-04-29T02:42:12.579Z,90.04
2023-04-29T02:44:44.828Z,89.26
2023-04-29T02:47:17.194Z,88.93
2023-04-29T02:50:09.730Z,89.85
2023-04-29T02:53:00.871Z,89.85
2023-04-29T02:55:33.509Z,90.41
2023-04-29T02:58:12.529Z,91.30
2023-04-29T03:00:44.872Z,90.49
2023-04-29T03:03:17.342Z,90.65
2023-04-29T03:05:50.024Z,91.38
2023-04-29T03:08:22.360Z,91.50
2023-04-29T03:10:54.725Z,91.29
2023-04-29T03:13:27.723Z,90.36
2023-04-29T03:16:01.050Z,91.57
2023-04-29T03:18:33.533Z,91.58
2023-04-29T03:21:05.949Z,91.71
2023-04-29T03:23:39.468Z,91.44
2023-04-29T03:26:12.889Z,91.94
2023-04-29T03:28:45.916Z,91.64
2023-04-29T03:31:20.334Z,91.87
2023-04-29T03:33:52.990Z,92.01
2023-04-29T03:36:26.417Z,92.59
2023-04-29T03:39:31.480Z,92.23
2023-04-29T03:42:04.373Z,92.47
2023-04-29T03:44:37.387Z,92.62
2023-04-29T03:47:09.737Z,93.39
2023-04-29T03:49:42.155Z,94.24
2023-04-29T03:52:15.388Z,95.15
2023-04-29T03:54:48.194Z,95.43
2023-04-29T03:57:20.558Z,95.75
2023-04-29T03:59:53.911Z,95.68
2023-04-29T04:02:27.852Z,94.88
2023-04-29T04:05:01.296Z,96.06
2023-04-29T04:07:33.751Z,96.26
2023-04-29T04:10:37.744Z,95.34
2023-04-29T04:13:19.581Z,95.32
2023-04-29T04:15:53.663Z,97.87
2023-04-29T04:18:26.113Z,98.81
2023-04-29T04:20:58.445Z,97.57
2023-04-29T04:23:31.925Z,96.91
2023-04-29T04:26:04.380Z,96.99
2023-04-29T04:28:58.937Z,96.84
2023-04-29T04:31:40.374Z,98.04
2023-04-29T04:34:13.954Z,95.74
2023-04-29T04:36:46.394Z,96.20
2023-04-29T04:39:18.718Z,96.50
2023-04-29T04:41:51.195Z,96.73
2023-04-29T04:44:25.041Z,95.86
2023-04-29T04:47:12.111Z,95.19
2023-04-29T04:49:54.871Z,93.87
2023-04-29T04:52:27.798Z,91.48
2023-04-29T04:55:21.328Z,91.34
2023-04-29T04:57:55.748Z,92.40
2023-04-29T05:00:28.162Z,94.43
2023-04-29T05:03:01.611Z,94.54
2023-04-29T05:05:34.278Z,93.70
2023-04-29T05:08:07.166Z,92.57
2023-04-29T05:10:45.347Z,91.91
2023-04-29T05:13:18.741Z,91.11
2023-04-29T05:15:51.350Z,89.75
2023-04-29T05:18:28.408Z,87.29
2023-04-29T05:21:00.839Z,84.48
2023-04-29T05:23:33.119Z,83.45
2023-04-29T05:26:05.613Z,83.71
2023-04-29T05:28:37.917Z,81.87
2023-04-29T05:31:10.830Z,82.60
2023-04-29T05:33:43.904Z,82.96
2023-04-29T05:36:16.210Z,82.06
2023-04-29T05:38:48.654Z,77.37
2023-04-29T05:41:23.477Z,77.65
2023-04-29T05:44:02.001Z,74.24
2023-04-29T05:46:37.150Z,74.38
2023-04-29T05:49:10.532Z,73.54
2023-04-29T05:51:42.965Z,73.23
2023-04-29T05:54:15.612Z,73.32
2023-04-29T05:56:48.079Z,74.01
2023-04-29T05:59:20.431Z,72.66
2023-04-29T06:01:57.674Z,69.05
2023-04-29T06:04:31.193Z,67.52
2023-04-29T06:07:26.118Z,66.63
2023-04-29T06:10:17.550Z,58.82
2023-04-29T06:12:51.653Z,60.07
2023-04-29T06:15:24.145Z,59.72
2023-04-29T06:17:56.678Z,55.91
2023-04-29T06:20:29.736Z,56.98
2023-04-29T06:23:02.019Z,54.14
2023-04-29T06:25:34.628Z,54.10
2023-04-29T06:28:10.159Z,52.08
2023-04-29T06:30:42.945Z,52.17
2023-04-29T06:33:16.303Z,52.25
2023-04-29T06:35:49.304Z,50.63
2023-04-29T06:38:41.888Z,52.90
2023-04-29T06:41:52.689Z,57.06
2023-04-29T06:44:49.934Z,60.99
2023-04-29T06:47:33.582Z,61.71
2023-04-29T06:50:19.504Z,62.42
2023-04-29T06:52:52.567Z,62.25
2023-04-29T06:55:24.921Z,61.07
2023-04-29T06:57:57.430Z,62.02
2023-04-29T07:00:29.788Z,60.87
2023-04-29T07:03:02.548Z,62.44
2023-04-29T07:05:34.932Z,60.38
2023-04-29T07:08:09.661Z,60.27
2023-04-29T07:10:42.074Z,57.44
2023-04-29T07:13:14.402Z,57.24
2023-04-29T07:15:47.808Z,55.76
2023-04-29T07:18:20.197Z,55.23
2023-04-29T07:20:52.604Z,55.60
2023-04-29T07:23:25.629Z,55.70
2023-04-29T07:25:57.941Z,56.21
2023-04-29T07:28:30.390Z,51.92
2023-04-29T07:31:02.779Z,51.55
2023-04-29T07:33:36.035Z,49.51
2023-04-29T07:36:08.575Z,48.22
2023-04-29T07:38:42.016Z,44.54
2023-04-29T07:41:14.386Z,44.05
2023-04-29T07:43:46.788Z,41.01
2023-04-29T07:46:19.673Z,41.74
2023-04-29T07:48:52.777Z,40.98
2023-04-29T07:51:26.790Z,39.18
2023-04-29T07:54:00.060Z,40.00
2023-04-29T07:56:32.894Z,42.34
2023-04-29T07:59:05.886Z,40.05
2023-04-29T08:01:38.556Z,40.34
2023-04-29T08:04:11.240Z,39.35
2023-04-29T08:06:53.104Z,37.56
2023-04-29T08:09:26.207Z,39.71
2023-04-29T08:11:58.567Z,36.27
2023-04-29T08:14:31.001Z,39.04
2023-04-29T08:17:05.410Z,39.20
2023-04-29T08:19:37.908Z,39.69
2023-04-29T08:22:11.608Z,41.15
2023-04-29T08:24:44.736Z,41.07
2023-04-29T08:27:17.065Z,40.25
2023-04-29T08:29:49.441Z,36.76
2023-04-29T08:32:22.028Z,40.75
2023-04-29T08:34:54.689Z,39.96
2023-04-29T08:37:27.666Z,37.12
2023-04-29T08:40:01.070Z,38.34
2023-04-29T08:42:35.632Z,39.32
2023-04-29T08:45:08.931Z,39.33
2023-04-29T08:47:41.932Z,39.85
2023-04-29T08:50:14.316Z,41.49
2023-04-29T08:52:46.756Z,40.48
2023-04-29T08:55:19.845Z,40.99
2023-04-29T08:57:54.588Z,40.57
2023-04-29T09:00:26.975Z,40.51
2023-04-29T09:03:01.001Z,39.99
2023-04-29T09:05:35.778Z,38.63
2023-04-29T09:08:08.674Z,38.89
2023-04-29T09:10:42.859Z,35.43
2023-04-29T09:13:24.338Z,36.27
2023-04-29T09:15:57.259Z,36.30
2023-04-29T09:18:43.562Z,37.87
2023-04-29T09:21:19.646Z,35.28
2023-04-29T09:23:55.371Z,35.09
2023-04-29T09:26:40.803Z,37.95
2023-04-29T09:29:15.404Z,37.20
2023-04-29T09:31:48.353Z,38.08
2023-04-29T09:34:31.524Z,37.00
2023-04-29T09:37:03.981Z,36.35
2023-04-29T09:39:39.463Z,35.41
2023-04-29T09:42:12.565Z,34.01
2023-04-29T09:44:44.965Z,36.19
2023-04-29T09:47:17.435Z,36.15
2023-04-29T09:49:49.836Z,35.37
2023-04-29T09:52:22.322Z,35.86
2023-04-29T09:55:05.224Z,32.34
2023-04-29T09:57:43.353Z,31.78
2023-04-29T10:00:17.463Z,34.04
2023-04-29T10:02:50.449Z,33.25
2023-04-29T10:05:23.083Z,33.03
2023-04-29T10:07:56.366Z,32.38
2023-04-29T10:10:30.660Z,35.92
2023-04-29T10:13:04.751Z,35.12
2023-04-29T10:15:43.730Z,37.89
2023-04-29T10:18:20.626Z,38.94
2023-04-29T10:20:57.123Z,37.30
2023-04-29T10:23:31.044Z,40.35
2023-04-29T10:26:05.528Z,38.91
2023-04-29T10:28:40.253Z,38.56
2023-04-29T10:31:14.260Z,38.30
2023-04-29T10:33:47.668Z,39.04
2023-04-29T10:36:21.513Z,39.80
2023-04-29T10:38:56.825Z,39.42
2023-04-29T10:41:34.242Z,39.70
2023-04-29T10:44:07.367Z,39.08
2023-04-29T10:46:40.101Z,40.16
2023-04-29T10:49:13.174Z,38.98
2023-04-29T10:51:45.691Z,38.86
2023-04-29T10:54:24.796Z,38.86
2023-04-29T10:56:57.524Z,41.82
2023-04-29T10:59:46.384Z,41.11
2023-04-29T11:02:20.153Z,38.99
2023-04-29T11:05:08.805Z,38.79
2023-04-29T11:07:41.181Z,39.38
2023-04-29T11:12:45.989Z,38.64
2023-04-29T11:15:19.084Z,35.74
2023-04-29T11:17:51.591Z,38.81
2023-04-29T11:20:24.168Z,37.82
2023-04-29T11:22:57.193Z,37.11
2023-04-29T11:25:29.737Z,36.55
2023-04-29T11:28:03.352Z,37.86
2023-04-29T11:30:38.060Z,37.01
2023-04-29T11:33:10.522Z,35.59
2023-04-29T11:35:43.280Z,36.15
2023-04-29T11:38:16.033Z,35.98
2023-04-29T11:40:49.381Z,37.34
2023-04-29T11:43:23.246Z,36.49
2023-04-29T11:45:56.331Z,36.17
2023-04-29T11:48:29.694Z,35.55
2023-04-29T11:51:02.042Z,37.12
2023-04-29T11:53:34.906Z,36.42
2023-04-29T11:56:08.694Z,35.61
2023-04-29T11:58:43.043Z,37.64
2023-04-29T12:01:16.111Z,37.48
2023-04-29T12:03:49.116Z,36.73
2023-04-29T12:06:21.575Z,36.37
2023-04-29T12:08:53.910Z,36.50
2023-04-29T12:11:27.528Z,36.54
2023-04-29T12:14:01.986Z,35.77
2023-04-29T12:16:35.548Z,36.80
2023-04-29T12:19:09.851Z,36.93
2023-04-29T12:21:49.392Z,36.66
2023-04-29T12:24:21.545Z,37.38
2023-04-29T12:26:55.116Z,37.64
2023-04-29T12:29:27.597Z,38.92
2023-04-29T12:32:01.027Z,39.08
2023-04-29T12:34:33.718Z,39.13
2023-04-29T12:37:06.083Z,38.54
2023-04-29T12:39:38.754Z,39.04
2023-04-29T12:42:15.699Z,40.12
2023-04-29T12:44:48.845Z,40.17
2023-04-29T12:47:21.893Z,40.71
2023-04-29T12:49:57.232Z,40.61
2023-04-29T12:52:30.084Z,40.70
2023-04-29T12:55:02.543Z,40.39
2023-04-29T12:57:34.986Z,40.38
2023-04-29T13:00:08.730Z,41.31
2023-04-29T13:02:41.973Z,41.57
2023-04-29T13:05:14.571Z,40.16
2023-04-29T13:07:46.899Z,41.01
2023-04-29T13:10:19.209Z,42.47
2023-04-29T13:12:51.546Z,41.63
2023-04-29T13:15:24.462Z,42.32
2023-04-29T13:17:58.004Z,40.24
2023-04-29T13:20:30.883Z,38.94
2023-04-29T13:23:03.208Z,38.88
2023-04-29T13:25:35.531Z,40.53
2023-04-29T13:28:08.167Z,38.88
2023-04-29T13:30:41.194Z,38.93
2023-04-29T13:33:14.532Z,39.13
2023-04-29T13:35:48.802Z,39.39
2023-04-29T13:38:22.601Z,37.76
2023-04-29T13:40:56.152Z,38.72
2023-04-29T13:43:37.570Z,38.80
2023-04-29T13:46:11.674Z,38.31
2023-04-29T13:49:17.082Z,39.22
2023-04-29T13:52:16.875Z,39.42
2023-04-29T14:00:19.135Z,38.08
2023-04-29T14:02:33.688Z,39.06
2023-04-29T14:05:09.403Z,38.71
2023-04-29T14:07:41.880Z,38.55
2023-04-29T14:10:14.168Z,39.49
2023-04-29T14:12:46.581Z,39.09
2023-04-29T14:15:18.896Z,39.33
2023-04-29T14:17:51.536Z,39.62
2023-04-29T14:20:24.578Z,40.17
2023-04-29T14:22:56.872Z,39.33
2023-04-29T14:25:30.015Z,38.80
2023-04-29T14:28:03.690Z,38.33
2023-04-29T14:30:35.998Z,37.91
2023-04-29T14:33:08.431Z,38.73
2023-04-29T14:35:41.390Z,39.38
2023-04-29T14:38:13.704Z,38.69
2023-04-29T14:40:46.759Z,38.73
2023-04-29T14:43:19.164Z,37.98
2023-04-29T14:45:51.477Z,37.92
2023-04-29T14:48:23.888Z,38.71
2023-04-29T14:50:57.191Z,38.79
2023-04-29T14:53:29.547Z,39.12
2023-04-29T14:56:02.971Z,37.83
2023-04-29T14:58:35.322Z,38.19
2023-04-29T15:01:08.211Z,38.60
2023-04-29T15:03:43.902Z,37.80
2023-04-29T15:06:17.637Z,37.94
2023-04-29T15:08:50.019Z,39.23
2023-04-29T15:11:22.386Z,39.76
2023-04-29T15:13:54.717Z,40.40
2023-04-29T15:16:27.918Z,40.23
2023-04-29T15:19:01.002Z,39.83
2023-04-29T15:21:34.955Z,39.54
2023-04-29T15:24:07.929Z,39.63
2023-04-29T15:26:40.299Z,40.31
2023-04-29T15:29:12.729Z,39.97
2023-04-29T15:31:45.244Z,39.63
2023-04-29T15:34:17.563Z,40.36
2023-04-29T15:36:50.741Z,39.43
2023-04-29T15:39:23.184Z,39.57
2023-04-29T15:41:55.983Z,40.53
2023-04-29T15:44:28.969Z,40.27
2023-04-29T15:47:01.346Z,40.50
2023-04-29T15:49:33.634Z,40.97
2023-04-29T15:52:06.616Z,41.23
2023-04-29T15:54:38.997Z,41.25
2023-04-29T15:57:11.302Z,40.84
2023-04-29T15:59:43.621Z,40.92
2023-04-29T16:02:16.021Z,40.85
2023-04-29T16:04:48.300Z,41.87
2023-04-29T16:07:21.280Z,42.22
2023-04-29T16:09:53.771Z,42.20
2023-04-29T16:12:26.339Z,41.65
2023-04-29T16:14:58.943Z,42.46
2023-04-29T16:17:31.670Z,42.87
2023-04-29T16:20:04.738Z,42.63
2023-04-29T16:22:37.716Z,43.63
2023-04-29T16:25:10.801Z,42.65
2023-04-29T16:27:43.044Z,42.64
2023-04-29T16:30:15.386Z,45.68
2023-04-29T16:32:47.747Z,46.97
2023-04-29T16:35:24.391Z,47.93
2023-04-29T16:37:57.461Z,46.93
2023-04-29T16:40:29.830Z,47.04
2023-04-29T16:43:02.133Z,47.71
2023-04-29T16:45:34.465Z,48.23
2023-04-29T16:48:07.645Z,48.40
2023-04-29T16:50:40.067Z,48.16
2023-04-29T16:53:13.313Z,49.43
2023-04-29T16:55:45.748Z,50.45
2023-04-29T16:58:18.656Z,50.95
2023-04-29T17:00:52.500Z,51.63
2023-04-29T17:03:24.906Z,53.02
2023-04-29T17:05:58.421Z,55.76
2023-04-29T17:08:31.554Z,55.96
2023-04-29T17:11:04.607Z,56.78
2023-04-29T17:13:36.977Z,57.14
2023-04-29T17:16:09.387Z,58.55
2023-04-29T17:18:41.917Z,59.11
2023-04-29T17:21:14.687Z,59.76
2023-04-29T17:23:47.868Z,60.29
2023-04-29T17:26:20.579Z,60.13
2023-04-29T17:28:52.876Z,59.58
2023-04-29T17:31:33.034Z,59.92
2023-04-29T17:34:17.431Z,60.78
2023-04-29T17:36:50.782Z,61.24
2023-04-29T17:39:23.798Z,61.02
2023-04-29T17:41:56.397Z,61.03
2023-04-29T17:44:28.692Z,60.11
2023-04-29T17:47:01.451Z,59.37
2023-04-29T17:49:33.762Z,62.11
2023-04-29T17:52:06.093Z,63.16
2023-04-29T17:54:39.556Z,64.97
2023-04-29T17:57:11.847Z,64.55
2023-04-29T17:59:44.156Z,63.69
2023-04-29T18:02:16.428Z,64.79
2023-04-29T18:04:48.779Z,66.70
2023-04-29T18:07:21.077Z,67.58
2023-04-29T18:09:54.273Z,67.98
2023-04-29T18:12:26.847Z,68.37
2023-04-29T18:15:00.031Z,69.07
2023-04-29T18:17:33.435Z,70.51
2023-04-29T18:20:07.453Z,70.12
2023-04-29T18:22:39.800Z,70.53
2023-04-29T18:25:12.764Z,71.57
2023-04-29T18:27:45.073Z,71.81
2023-04-29T18:30:17.574Z,72.47
2023-04-29T18:32:50.022Z,73.92
2023-04-29T18:35:22.595Z,72.75
2023-04-29T18:37:54.895Z,74.40
2023-04-29T18:40:27.939Z,74.22
2023-04-29T18:43:01.362Z,74.17
2023-04-29T18:45:33.745Z,74.10
2023-04-29T18:48:06.219Z,74.36
2023-04-29T18:50:39.390Z,73.77
2023-04-29T18:53:11.885Z,73.54
2023-04-29T18:55:45.363Z,75.05
2023-04-29T18:58:17.713Z,75.56
2023-04-29T19:00:50.217Z,74.62
2023-04-29T19:03:22.580Z,75.70
2023-04-29T19:05:55.017Z,76.23
2023-04-29T19:08:27.387Z,76.83
2023-04-29T19:11:00.988Z,76.96
2023-04-29T19:13:33.330Z,78.33
2023-04-29T19:16:05.977Z,80.05
2023-04-29T19:18:38.328Z,81.35
2023-04-29T19:21:11.123Z,78.17
2023-04-29T19:23:43.619Z,80.04
2023-04-29T19:26:16.637Z,81.42
2023-04-29T19:28:48.902Z,80.06
2023-04-29T19:31:21.252Z,80.30
2023-04-29T19:33:53.627Z,81.54
2023-04-29T19:36:26.078Z,83.35
2023-04-29T19:38:58.599Z,82.39
2023-04-29T19:41:32.713Z,82.35
2023-04-29T19:44:07.000Z,80.91
2023-04-29T19:46:40.354Z,77.69
2023-04-29T19:49:12.665Z,78.30
2023-04-29T19:51:45.067Z,78.94
2023-04-29T19:54:17.564Z,78.96
2023-04-29T19:56:50.542Z,80.90
2023-04-29T19:59:22.912Z,79.46
2023-04-29T20:01:55.281Z,81.21
2023-04-29T20:04:27.672Z,80.99
2023-04-29T20:07:00.941Z,82.12
2023-04-29T20:09:34.461Z,83.22
2023-04-29T20:12:07.436Z,84.36
2023-04-29T20:14:39.800Z,84.67
2023-04-29T20:17:12.768Z,84.71
2023-04-29T20:19:45.232Z,84.18
2023-04-29T20:22:17.758Z,83.01
2023-04-29T20:24:50.124Z,82.46
2023-04-29T20:27:23.129Z,82.73
2023-04-29T20:29:56.373Z,83.23
2023-04-29T20:32:28.819Z,84.33
2023-04-29T20:35:01.562Z,85.13
2023-04-29T20:37:33.887Z,85.33
2023-04-29T20:40:07.788Z,84.52
2023-04-29T20:42:41.141Z,84.63
2023-04-29T20:45:13.512Z,84.63
2023-04-29T20:47:45.870Z,84.83
2023-04-29T20:50:18.576Z,84.79
2023-04-29T20:52:51.776Z,85.35
2023-04-29T20:55:24.278Z,86.01
2023-04-29T20:57:57.224Z,86.20
2023-04-29T21:00:29.604Z,86.37
2023-04-29T21:03:01.994Z,86.56
2023-04-29T21:05:34.342Z,87.00
2023-04-29T21:08:06.645Z,87.03
2023-04-29T21:10:38.998Z,87.16
2023-04-29T21:13:12.578Z,85.97
2023-04-29T21:15:45.314Z,85.74
2023-04-29T21:18:18.132Z,85.61
2023-04-29T21:20:50.590Z,85.81
2023-04-29T21:23:22.881Z,85.43
2023-04-29T21:25:55.433Z,86.57
2023-04-29T21:28:28.446Z,87.03
2023-04-29T21:31:01.042Z,88.39
2023-04-29T21:33:33.400Z,89.18
2023-04-29T21:36:05.943Z,89.52
2023-04-29T21:38:38.194Z,90.23
2023-04-29T21:41:18.595Z,89.42
2023-04-29T21:43:51.757Z,88.80
2023-04-29T21:46:24.898Z,88.19
2023-04-29T21:48:57.800Z,88.81
2023-04-29T21:51:30.988Z,88.67
2023-04-29T21:54:07.543Z,88.79
2023-04-29T21:56:39.879Z,90.20
2023-04-29T21:59:12.894Z,90.69
2023-04-29T22:01:48.378Z,90.88
2023-04-29T22:04:20.902Z,91.33
2023-04-29T22:06:53.265Z,90.94
2023-04-29T22:09:25.637Z,91.26
2023-04-29T22:11:57.959Z,91.44
2023-04-29T22:14:30.944Z,91.28
2023-04-29T22:17:03.250Z,91.19
2023-04-29T22:19:35.570Z,91.27
2023-04-29T22:22:08.205Z,90.65
2023-04-29T22:24:40.558Z,91.27
2023-04-29T22:27:12.909Z,91.65
2023-04-29T22:29:45.827Z,91.12
2023-04-29T22:32:18.202Z,91.95
2023-04-29T22:34:50.947Z,92.23
2023-04-29T22:37:23.261Z,90.16
2023-04-29T22:39:56.178Z,89.57
2023-04-29T22:42:28.798Z,89.48
2023-04-29T22:45:01.805Z,88.93
2023-04-29T22:47:34.201Z,88.96
2023-04-29T22:50:07.473Z,89.39
2023-04-29T22:52:39.822Z,89.28
2023-04-29T22:55:12.401Z,89.76
2023-04-29T22:57:44.661Z,89.74
2023-04-29T23:00:17.908Z,90.58
2023-04-29T23:02:50.243Z,90.56
2023-04-29T23:05:22.545Z,90.44
2023-04-29T23:07:54.850Z,90.81
2023-04-29T23:10:27.309Z,90.89
2023-04-29T23:12:59.912Z,90.47
2023-04-29T23:15:33.307Z,90.94
2023-04-29T23:18:05.686Z,90.06
2023-04-29T23:20:38.261Z,90.72
2023-04-29T23:23:10.541Z,90.16
2023-04-29T23:25:42.930Z,89.78
2023-04-29T23:28:15.979Z,89.85
2023-04-29T23:30:48.977Z,91.09
2023-04-29T23:33:21.478Z,91.10
2023-04-29T23:35:53.996Z,90.95
2023-04-29T23:38:26.309Z,92.01
2023-04-29T23:40:58.649Z,93.11
2023-04-29T23:43:31.428Z,92.43
2023-04-29T23:46:04.528Z,92.32
2023-04-29T23:48:36.894Z,92.34
2023-04-29T23:51:09.401Z,92.59
2023-04-29T23:53:41.732Z,92.36
2023-04-29T23:56:14.006Z,92.29
2023-04-29T23:58:46.375Z,91.86
